Flight Track Log - Related Links

Times and Time Zones

All times are in EDT time to prevent confusion due to time zone crossing. See the N450S flight status page for this flight to view local times or setup timezone preferences in your user account.

Time Position Orientation Groundspeed Altitude Reporting Facility
EDT Latitude Longitude Course Direction KTS MPH feet Rate Location/Type
Fri 10:04:37 AM 41.7833 -87.7833 56° Northeast 135 155 1,800  Level Chicago TRACON
Fri 10:05:37 AM 41.8000 -87.7500 56° Northeast 164 189 4,000 1,150 Climbing Chicago TRACON
Fri 10:06:37 AM 41.7833 -87.6833 109° East 228 262 4,100 650 Climbing Chicago TRACON
Fri 10:07:37 AM 41.7833 -87.6000 90° East 223 257 5,300 1,105 Climbing Chicago TRACON
Fri 10:07:53 AM 41.7878 -87.5908 57° Northeast 215 247 5,500 538 Climbing Chicago Center
Fri 10:08:55 AM 41.7906 -87.5092 87° East 220 253 6,000 387 Climbing Chicago Center
Fri 10:09:57 AM 41.7917 -87.4181 89° East 232 267 6,300 1,016 Climbing Chicago Center
Fri 10:10:59 AM 41.7922 -87.3153 90° East 221 254 8,100 1,597 Climbing Chicago Center
Fri 10:12:01 AM 41.7906 -87.2325 92° East 219 252 9,600 1,452 Climbing Chicago Center
Fri 10:13:03 AM 41.7878 -87.1500 93° East 220 253 11,100 1,500 Climbing Chicago Center
Fri 10:14:05 AM 41.7856 -87.0658 92° East 224 258 12,700 968 Climbing Chicago Center
Fri 10:15:07 AM 41.7842 -86.9764 91° East 237 273 13,100 194 Climbing Chicago Center
Fri 10:16:09 AM 41.7811 -86.8553 92° East 265 305 13,100  Level Chicago Center
Fri 10:17:11 AM 41.7775 -86.7506 93° East 277 319 13,100  Level Chicago Center
Fri 10:18:13 AM 41.7744 -86.6436 92° East 277 319 13,100 290 Level Chicago Center
Fri 10:19:15 AM 41.7731 -86.5414 91° East 276 318 13,700 1,065 Climbing Chicago Center
Fri 10:20:17 AM 41.7711 -86.4506 92° East 250 288 15,300 1,306 Climbing Chicago Center
Fri 10:21:19 AM 41.7678 -86.3631 93° East 238 274 16,400 1,344 Climbing Chicago Center
Fri 10:22:22 AM 41.7703 -86.2747 88° East 238 274 18,100 1,200 Climbing Chicago Center
Fri 10:23:24 AM 41.7817 -86.1911 80° East 230 265 18,900 435 Climbing Chicago Center
Fri 10:24:26 AM 41.7939 -86.0739 82° East 264 304 19,000 48 Climbing Chicago Center
Fri 10:25:28 AM 41.8064 -85.9678 81° East 285 328 19,000  Level Chicago Center
Fri 10:26:30 AM 41.8178 -85.8594 82° East 291 335 19,000  Level Chicago Center
Fri 10:27:32 AM 41.8297 -85.7508 82° East 291 335 19,000  Level Chicago Center
Fri 10:28:34 AM 41.8419 -85.6419 81° East 294 338 19,000  Level Chicago Center
Fri 10:29:36 AM 41.8533 -85.5322 82° East 295 339 19,000  Level Chicago Center
Fri 10:30:38 AM 41.8636 -85.4219 83° East 294 338 19,000  Level Chicago Center
Fri 10:31:45 AM 41.8778 -85.2914 82° East 295 339 19,000  Level Cleveland Center
Fri 10:32:45 AM 41.8908 -85.1806 81° East 295 339 19,000  Level Cleveland Center
Fri 10:33:45 AM 41.9017 -85.0614 83° East 295 339 19,000  Level Cleveland Center
Fri 10:34:45 AM 41.9122 -84.9533 82° East 295 339 19,000  Level Cleveland Center
Fri 10:35:45 AM 41.9225 -84.8450 83° East 295 339 19,000  Level Cleveland Center
Fri 10:36:45 AM 41.9347 -84.7342 82° East 295 339 19,000  Level Cleveland Center
Fri 10:37:45 AM 41.9450 -84.6261 83° East 289 333 19,000  Level Cleveland Center
Fri 10:38:45 AM 41.9550 -84.5178 83° East 289 333 19,000  Level Cleveland Center
Fri 10:39:45 AM 41.9647 -84.4122 83° East 289 333 19,000  Level Cleveland Center
Fri 10:40:45 AM 41.9744 -84.3064 83° East 289 333 19,000  Level Cleveland Center
Fri 10:41:45 AM 41.9800 -84.2033 86° East 298 343 19,000  Level Cleveland Center
Fri 10:42:45 AM 41.9917 -84.0953 82° East 293 337 19,000  Level Cleveland Center
Fri 10:43:45 AM 42.0011 -83.9867 83° East 293 337 19,000  Level Cleveland Center
Fri 10:44:45 AM 42.0106 -83.8781 83° East 293 337 19,000  Level Cleveland Center
Fri 10:45:45 AM 42.0200 -83.7669 83° East 293 337 19,000  Level Cleveland Center
Fri 10:46:45 AM 42.0317 -83.6444 83° East 293 337 19,000  Level Cleveland Center
Fri 10:47:45 AM 42.0383 -83.5442 85° East 293 337 19,000  Level Cleveland Center
Fri 10:48:45 AM 42.0458 -83.4214 85° East 293 337 19,000  Level Cleveland Center
Fri 10:49:45 AM 42.0317 -83.3089 100° East 293 337 19,000  Level Cleveland Center
Fri 10:50:45 AM 42.0239 -83.1994 95° East 293 337 19,000  Level Cleveland Center
Fri 10:51:45 AM 42.0369 -83.0881 81° East 293 337 19,000  Level Cleveland Center
Fri 10:52:45 AM 42.0539 -82.9769 78° East 294 338 19,000  Level Cleveland Center
Fri 10:53:45 AM 42.0686 -82.8683 80° East 294 338 19,000  Level Cleveland Center
Fri 10:54:45 AM 42.0831 -82.7597 80° East 294 338 19,000  Level Cleveland Center
Fri 10:55:45 AM 42.0686 -82.6475 100° East 289 333 19,000 -400 Level Cleveland Center
Fri 10:56:45 AM 42.0517 -82.5322 101° East 295 339 18,200 -600 Descending Cleveland Center
Fri 10:57:45 AM 42.0328 -82.4169 102° East 305 351 17,800 -600 Descending Cleveland Center
Fri 10:58:45 AM 42.0097 -82.3017 105° East 311 358 17,000 -600 Descending Cleveland Center
Fri 10:59:45 AM 41.9672 -82.2058 121° Southeast 311 358 16,600 -950 Descending Cleveland Center
Fri 11:00:45 AM 41.9267 -82.1181 122° Southeast 305 351 15,100 -1,684 Descending Cleveland Center
Fri 11:01:39 AM 41.9072 -82.0172 104° East 305 351 13,400 -1,636 Descending Cleveland Center
Fri 11:02:46 AM 41.8942 -81.8886 98° East 294 338 11,800 -1,553 Descending Cleveland Center
Fri 11:03:04 AM 41.8903 -81.8550 99° East 293 337 11,200 -1,583 Descending Cleveland Center
Fri 11:03:58 AM 41.8789 -81.7656 100° East 290 334 9,900 -1,485 Descending Cleveland Center
Fri 11:04:45 AM 41.8547 -81.6814 111° Southeast 289 333 8,700 -1,682 Descending Cleveland Center
Fri 11:05:45 AM 41.7861 -81.6442 158° South 254 292 6,900 -1,650 Descending Cleveland Center
Fri 11:06:45 AM 41.7131 -81.6542 186° South 249 287 5,400 -1,520 Descending Cleveland Center
Fri 11:07:00 AM 41.6964 -81.6481 165° South 246 283 5,000 -1,600 Descending Cleveland Center
Fri 11:07:45 AM 41.6467 -81.6417 175° South 249 287 3,800 -1,574 Descending Cleveland Center
Fri 11:08:01 AM 41.6300 -81.6414 179° South 241 277 3,400 -1,200 Descending Cleveland Center
Fri 11:08:45 AM 41.5842 -81.6381 177° South 233 268 2,600 -727 Descending Cleveland Center
Fri 11:09:07 AM 41.5675 -81.6378 179° South 187 215 2,600 -900 Level Cleveland Center
Fri 11:09:45 AM 41.5403 -81.6456 192° South 191 220 1,700 -1,377 Descending Cleveland Center
Fri 11:10:08 AM 41.5317 -81.6594 230° Southwest 125 144 1,200 -900 Descending Cleveland Center
Fri 11:10:45 AM 41.5025 -81.6644 187° South 149 171 800 -649 Descending Cleveland Center
Fri 11:12:00 AM 41.5167 -81.6667 217° Southwest  Level FlightAware Approximate

Login

Don't have an account? Register now (free) for customized features, flight alerts, and more!